Flight Track Log - Related Links

Times and Time Zones

All times are in EDT time to prevent confusion due to time zone crossing. See the EJA922 flight status page for this flight to view local times or setup timezone preferences in your user account.

Time Position Orientation Groundspeed Altitude Reporting Facility
EDT Latitude Longitude Course Direction KTS MPH feet Rate Location/Type
Tue 04:36:36 PM 42.8697 -85.5722 253° West 208 239 2,700  Level Chicago Center
Tue 04:37:38 PM 42.8517 -85.6517 253° West 216 249 6,500 3,484 Climbing Chicago Center
Tue 04:38:40 PM 42.8464 -85.7483 266° West 251 289 9,900 2,952 Climbing Chicago Center
Tue 04:39:42 PM 42.8378 -85.8592 264° West 285 328 12,600 2,468 Climbing Chicago Center
Tue 04:40:44 PM 42.8236 -86.0186 263° West 348 400 15,000 2,208 Climbing Chicago Center
Tue 04:41:47 PM 42.8111 -86.1578 263° West 364 419 17,200 1,920 Climbing Chicago Center
Tue 04:42:49 PM 42.8003 -86.2908 264° West 356 410 19,000 1,597 Climbing Chicago Center
Tue 04:43:51 PM 42.7867 -86.4250 262° West 355 409 20,500 1,452 Climbing Chicago Center
Tue 04:44:53 PM 42.7744 -86.5594 263° West 357 411 22,000 1,452 Climbing Chicago Center
Tue 04:45:55 PM 42.7622 -86.6942 263° West 359 413 23,500 1,452 Climbing Chicago Center
Tue 04:46:57 PM 42.7492 -86.8297 263° West 362 417 25,000 1,597 Climbing Chicago Center
Tue 04:47:59 PM 42.7331 -86.9953 263° West 367 422 26,800 1,500 Climbing Chicago Center
Tue 04:49:01 PM 42.7189 -87.1328 262° West 368 423 28,100 1,258 Climbing Chicago Center
Tue 04:50:03 PM 42.7050 -87.2725 262° West 371 427 29,400 1,210 Climbing Chicago Center
Tue 04:51:05 PM 42.6903 -87.4161 262° West 383 441 30,600 1,065 Climbing Chicago Center
Tue 04:52:07 PM 42.6753 -87.5608 262° West 388 447 31,600 968 Climbing Chicago Center
Tue 04:53:09 PM 42.6586 -87.7111 261° West 399 459 32,600 960 Climbing Chicago Center
Tue 04:54:12 PM 42.6419 -87.8822 263° West 404 465 33,600 960 Climbing Chicago Center
Tue 04:55:14 PM 42.6250 -88.0350 261° West 412 474 34,600 968 Climbing Chicago Center
Tue 04:56:16 PM 42.6250 -88.1897 270° West 426 490 35,600 1,016 Climbing Chicago Center
Tue 04:57:18 PM 42.6597 -88.3728 285° West 428 493 36,700 1,016 Climbing Chicago Center
Tue 04:58:20 PM 42.6664 -88.5331 273° West 427 491 37,700 968 Climbing Chicago Center
Tue 04:59:22 PM 42.6697 -88.6925 272° West 427 491 38,700 1,016 Climbing Chicago Center
Tue 05:00:24 PM 42.6492 -88.8631 261° West 425 489 39,800 629 Climbing Chicago Center
Tue 05:01:26 PM 42.6275 -89.0225 260° West 429 494 40,000 97 Climbing Chicago Center
Tue 05:02:28 PM 42.6069 -89.1872 260° West 443 510 40,000  Level Chicago Center
Tue 05:03:30 PM 42.5858 -89.3578 261° West 458 527 40,000  Level Chicago Center
Tue 05:04:32 PM 42.5583 -89.5633 260° West 467 537 40,000  Level Chicago Center
Tue 05:05:35 PM 42.5361 -89.7358 260° West 469 540 40,000  Level Chicago Center
Tue 05:06:37 PM 42.5133 -89.9067 260° West 467 537 40,000  Level Chicago Center
Tue 05:07:39 PM 42.4911 -90.0794 260° West 470 541 40,000  Level Chicago Center
Tue 05:08:41 PM 42.4661 -90.2519 259° West 472 543 40,000  Level Chicago Center
Tue 05:09:43 PM 42.4389 -90.4575 260° West 469 540 40,000  Level Chicago Center
Tue 05:10:45 PM 42.4150 -90.6289 259° West 468 539 40,000  Level Chicago Center
Tue 05:11:47 PM 42.3906 -90.8025 259° West 471 542 40,000  Level Chicago Center
Tue 05:12:49 PM 42.3647 -90.9750 259° West 474 545 40,000  Level Chicago Center
Tue 05:13:51 PM 42.3394 -91.1511 259° West 477 549 40,000  Level Chicago Center
Tue 05:14:53 PM 42.3086 -91.3603 259° West 475 547 40,000  Level Chicago Center
Tue 05:15:56 PM 42.2833 -91.5322 259° West 470 541 40,000  Level Chicago Center
Tue 05:16:58 PM 42.2567 -91.7053 258° West 470 541 40,000  Level Chicago Center
Tue 05:18:00 PM 42.2311 -91.8792 259° West 473 544 40,000  Level Chicago Center
Tue 05:19:02 PM 42.2047 -92.0528 258° West 474 545 40,000  Level Chicago Center
Tue 05:20:04 PM 42.1775 -92.2264 258° West 474 545 40,000  Level Chicago Center
Tue 05:21:06 PM 42.1458 -92.4342 258° West 475 547 40,000  Level Chicago Center
Tue 05:22:08 PM 42.1317 -92.6094 264° West 474 545 40,000  Level Chicago Center
Tue 05:23:10 PM 42.1253 -92.7875 267° West 477 549 40,000  Level Chicago Center
Tue 05:23:42 PM 42.1189 -92.8950 265° West 478 550 40,000  Level Minneapolis Center
Tue 05:24:44 PM 42.1108 -93.0736 267° West 482 555 40,000  Level Minneapolis Center
Tue 05:25:46 PM 42.1019 -93.2472 266° West 473 544 40,000  Level Minneapolis Center
Tue 05:26:48 PM 42.0919 -93.4258 266° West 479 551 40,000  Level Minneapolis Center
Tue 05:27:50 PM 42.0678 -93.6372 261° West 481 554 40,000  Level Minneapolis Center
Tue 05:28:52 PM 42.0339 -93.8106 255° West 484 557 40,000  Level Minneapolis Center
Tue 05:29:54 PM 42.0028 -93.9800 256° West 477 549 40,000  Level Minneapolis Center
Tue 05:30:56 PM 41.9697 -94.1547 256° West 478 550 40,000  Level Minneapolis Center
Tue 05:31:58 PM 41.9358 -94.3311 256° West 485 558 40,000  Level Minneapolis Center
Tue 05:33:00 PM 41.9036 -94.5072 256° West 487 560 40,000  Level Minneapolis Center
Tue 05:34:02 PM 41.8622 -94.7164 255° West 486 559 40,000  Level Minneapolis Center
Tue 05:35:03 PM 41.8272 -94.8906 255° West 486 559 40,000  Level Minneapolis Center
Tue 05:36:05 PM 41.7925 -95.0642 255° West 484 557 40,000  Level Minneapolis Center
Tue 05:37:07 PM 41.7578 -95.2392 255° West 486 559 40,000  Level Minneapolis Center
Tue 05:38:09 PM 41.7225 -95.4133 255° West 487 560 40,000  Level Minneapolis Center
Tue 05:39:11 PM 41.6867 -95.5861 255° West 486 559 40,000  Level Minneapolis Center
Tue 05:40:13 PM 41.6494 -95.7703 255° West 490 564 40,000  Level Minneapolis Center
Tue 05:41:15 PM 41.6053 -95.9800 254° West 490 564 40,000  Level Minneapolis Center
Tue 05:42:17 PM 41.5700 -96.1544 255° West 488 562 40,000  Level Minneapolis Center
Tue 05:43:19 PM 41.5331 -96.3292 254° West 489 563 40,000  Level Minneapolis Center
Tue 05:44:21 PM 41.5003 -96.4850 254° West 488 562 40,000  Level Minneapolis Center
Tue 05:45:22 PM 41.4558 -96.6933 254° West 489 563 40,000  Level Minneapolis Center
Tue 05:46:24 PM 41.4172 -96.8694 254° West 495 570 40,000  Level Minneapolis Center
Tue 05:47:26 PM 41.3786 -97.0422 253° West 491 565 40,000  Level Minneapolis Center
Tue 05:48:28 PM 41.3406 -97.2161 254° West 490 564 40,000  Level Minneapolis Center
Tue 05:49:30 PM 41.2981 -97.4125 254° West 492 566 40,000  Level Minneapolis Center
Tue 05:50:32 PM 41.2581 -97.5869 253° West 493 567 40,000  Level Minneapolis Center
Tue 05:51:34 PM 41.2189 -97.7611 253° West 492 566 40,000  Level Minneapolis Center
Tue 05:52:36 PM 41.1794 -97.9353 253° West 492 566 40,000  Level Minneapolis Center
Tue 05:53:38 PM 41.1397 -98.1103 253° West 494 568 40,000  Level Minneapolis Center
Tue 05:54:40 PM 41.0997 -98.2861 253° West 496 571 40,000  Level Minneapolis Center
Tue 05:55:41 PM 41.0561 -98.4692 253° West 493 567 40,000  Level Minneapolis Center
Tue 05:56:43 PM 41.0142 -98.6431 252° West 494 568 40,000  Level Minneapolis Center
Tue 05:57:45 PM 40.9711 -98.8192 252° West 501 577 40,000  Level Minneapolis Center
Tue 05:58:47 PM 40.9236 -99.0306 254° West 498 573 40,000  Level Minneapolis Center
Tue 05:59:42 PM 40.8903 -99.1706 253° West 496 571 40,000  Level Denver Center
Tue 06:00:44 PM 40.8486 -99.3450 253° West 496 571 40,000  Level Denver Center
Tue 06:01:46 PM 40.8147 -99.4844 252° West 498 573 40,000  Level Denver Center
Tue 06:02:48 PM 40.7550 -99.7278 252° West 498 573 40,000  Level Denver Center
Tue 06:03:50 PM 40.7142 -99.8931 252° West 496 571 40,000  Level Denver Center
Tue 06:04:52 PM 40.6661 -100.0869 252° West 498 573 40,000  Level Denver Center
Tue 06:05:54 PM 40.6236 -100.2539 252° West 500 575 40,000  Level Denver Center
Tue 06:06:56 PM 40.5814 -100.4197 252° West 497 572 40,000  Level Denver Center
Tue 06:07:58 PM 40.5319 -100.6156 252° West 500 575 40,000  Level Denver Center
Tue 06:09:00 PM 40.4886 -100.7842 251° West 503 579 40,000  Level Denver Center
Tue 06:10:03 PM 40.4425 -100.9806 253° West 501 577 40,000  Level Denver Center
Tue 06:11:05 PM 40.4208 -101.1547 261° West 502 578 40,000  Level Denver Center
Tue 06:12:07 PM 40.3931 -101.3572 260° West 505 581 40,000  Level Denver Center
Tue 06:13:09 PM 40.3692 -101.5294 260° West 501 577 40,000  Level Denver Center
Tue 06:14:11 PM 40.3447 -101.7025 260° West 503 579 40,000  Level Denver Center
Tue 06:15:13 PM 40.3178 -101.9050 260° West 504 580 40,000  Level Denver Center
Tue 06:16:15 PM 40.2919 -102.0750 259° West 499 574 40,000  Level Denver Center
Tue 06:17:17 PM 40.2636 -102.2750 260° West 500 575 40,000  Level Denver Center
Tue 06:18:19 PM 40.2383 -102.4464 259° West 501 577 40,000  Level Denver Center
Tue 06:19:21 PM 40.2092 -102.6464 259° West 502 578 40,000  Level Denver Center
Tue 06:20:23 PM 40.1833 -102.8144 259° West 498 573 40,000  Level Denver Center
Tue 06:21:25 PM 40.1567 -102.9933 259° West 502 578 40,000  Level Denver Center
Tue 06:22:27 PM 40.1292 -103.1706 259° West 501 577 40,000  Level Denver Center
Tue 06:23:29 PM 40.0956 -103.3836 258° West 501 577 40,000  Level Denver Center
Tue 06:24:31 PM 40.0681 -103.5608 259° West 501 577 40,000  Level Denver Center
Tue 06:25:33 PM 40.0400 -103.7361 258° West 497 572 40,000  Level Denver Center
Tue 06:26:35 PM 40.0119 -103.9150 258° West 502 578 40,000  Level Denver Center
Tue 06:29:41 PM 39.9239 -104.4814 259° West 499 574 40,000  Level Denver Center
Tue 06:30:44 PM 39.9142 -104.6703 266° West 501 577 40,000  Level Denver Center
Tue 06:31:46 PM 39.9067 -104.8544 267° West 506 582 40,000  Level Denver Center
Tue 06:32:48 PM 39.8983 -105.0322 267° West 497 572 40,000  Level Denver Center
Tue 06:33:50 PM 39.8886 -105.2231 266° West 489 563 40,000  Level Denver Center
Tue 06:34:52 PM 39.8792 -105.4025 266° West 497 572 40,000  Level Denver Center
Tue 06:35:54 PM 39.8700 -105.5800 266° West 494 568 40,000  Level Denver Center
Tue 06:36:56 PM 39.8597 -105.7600 266° West 497 572 40,000  Level Denver Center
Tue 06:37:58 PM 39.8528 -105.9328 267° West 481 554 40,000  Level Denver Center
Tue 06:39:00 PM 39.8411 -106.1456 266° West 491 565 40,000  Level Denver Center
Tue 06:40:02 PM 39.8306 -106.3239 266° West 494 568 40,000  Level Denver Center
Tue 06:41:04 PM 39.8203 -106.5025 266° West 497 572 40,000  Level Denver Center
Tue 06:42:06 PM 39.8083 -106.6822 265° West 499 574 40,000  Level Denver Center
Tue 06:43:08 PM 39.7986 -106.8567 266° West 491 565 40,000  Level Denver Center
Tue 06:44:10 PM 39.7875 -107.0322 265° West 493 567 40,000  Level Denver Center
Tue 06:45:12 PM 39.7739 -107.2283 265° West 490 564 40,000  Level Denver Center
Tue 06:46:14 PM 39.7625 -107.4244 266° West 488 562 40,000  Level Denver Center
Tue 06:47:15 PM 39.7503 -107.5928 265° West 488 562 40,000  Level Denver Center
Tue 06:48:17 PM 39.7369 -107.7867 265° West 484 557 40,000  Level Denver Center
Tue 06:49:19 PM 39.7228 -107.9533 264° West 484 557 40,000  Level Denver Center
Tue 06:50:21 PM 39.7111 -108.1208 265° West 488 562 40,000  Level Denver Center
Tue 06:51:23 PM 39.6956 -108.3183 264° West 494 568 40,000  Level Denver Center
Tue 06:52:24 PM 39.6839 -108.4847 265° West 486 559 40,000  Level Denver Center
Tue 06:53:26 PM 39.6700 -108.6756 265° West 489 563 40,000  Level Denver Center
Tue 06:54:28 PM 39.6525 -108.8706 263° West 501 577 40,000  Level Denver Center
Tue 06:55:30 PM 39.6397 -109.0331 264° West 482 555 40,000  Level Denver Center
Tue 06:56:31 PM 39.6242 -109.2264 264° West 483 556 40,000  Level Salt Lake Center
Tue 06:57:33 PM 39.6103 -109.3911 264° West 482 555 40,000  Level Salt Lake Center
Tue 06:58:34 PM 39.5958 -109.5564 264° West 483 556 40,000  Level Salt Lake Center
Tue 06:59:36 PM 39.5786 -109.7503 263° West 484 557 40,000  Level Salt Lake Center
Tue 07:00:38 PM 39.5639 -109.9147 263° West 482 555 40,000  Level Salt Lake Center
Tue 07:01:39 PM 39.5472 -110.1078 264° West 482 555 40,000  Level Salt Lake Center
Tue 07:02:41 PM 39.5325 -110.2711 263° West 478 550 40,000  Level Salt Lake Center
Tue 07:03:42 PM 39.5167 -110.4336 263° West 476 548 40,000  Level Salt Lake Center
Tue 07:04:44 PM 39.4983 -110.6242 263° West 479 551 40,000  Level Salt Lake Center
Tue 07:05:46 PM 39.4831 -110.7886 263° West 479 551 40,000  Level Salt Lake Center
Tue 07:06:47 PM 39.4647 -110.9800 263° West 480 552 40,000  Level Salt Lake Center
Tue 07:07:49 PM 39.4478 -111.1450 262° West 482 555 40,000  Level Salt Lake Center
Tue 07:08:50 PM 39.4306 -111.3186 263° West 483 556 40,000  Level Salt Lake Center
Tue 07:09:52 PM 39.4131 -111.4908 263° West 482 555 40,000  Level Salt Lake Center
Tue 07:10:54 PM 39.3933 -111.6628 262° West 484 557 40,000  Level Salt Lake Center
Tue 07:11:55 PM 39.3753 -111.8347 262° West 483 556 40,000  Level Salt Lake Center
Tue 07:12:57 PM 39.3533 -112.0406 262° West 482 555 40,000  Level Salt Lake Center
Tue 07:13:58 PM 39.3353 -112.2144 262° West 487 560 40,000  Level Salt Lake Center
Tue 07:15:00 PM 39.3172 -112.3856 262° West 484 557 40,000  Level Salt Lake Center
Tue 07:16:02 PM 39.2972 -112.5539 261° West 478 550 40,000  Level Salt Lake Center
Tue 07:17:03 PM 39.2775 -112.7256 262° West 479 551 40,000  Level Salt Lake Center
Tue 07:18:05 PM 39.2583 -112.8989 262° West 484 557 40,000  Level Salt Lake Center
Tue 07:19:06 PM 39.2397 -113.0675 262° West 480 552 40,000  Level Salt Lake Center
Tue 07:20:08 PM 39.2211 -113.2367 262° West 480 552 40,000  Level Salt Lake Center
Tue 07:21:09 PM 39.1975 -113.4400 262° West 480 552 40,000  Level Salt Lake Center
Tue 07:22:11 PM 39.1778 -113.6075 261° West 477 549 40,000  Level Salt Lake Center
Tue 07:23:12 PM 39.1581 -113.7756 261° West 477 549 40,000  Level Salt Lake Center
Tue 07:24:14 PM 39.1375 -113.9439 261° West 477 549 40,000  Level Salt Lake Center
Tue 07:25:16 PM 39.1161 -114.1119 261° West 478 550 40,000  Level Salt Lake Center
Tue 07:26:17 PM 39.0961 -114.2756 261° West 470 541 40,000  Level Salt Lake Center
Tue 07:27:19 PM 39.0753 -114.4364 261° West 461 531 40,000  Level Salt Lake Center
Tue 07:28:20 PM 39.0514 -114.6319 261° West 463 533 40,000  Level Salt Lake Center
Tue 07:29:22 PM 39.0292 -114.8000 260° West 474 545 40,000  Level Salt Lake Center
Tue 07:30:23 PM 39.0075 -114.9681 261° West 478 550 40,000  Level Salt Lake Center
Tue 07:31:25 PM 38.9847 -115.1367 260° West 481 554 40,000  Level Salt Lake Center
Tue 07:32:27 PM 38.9633 -115.3061 261° West 482 555 40,000  Level Salt Lake Center
Tue 07:33:28 PM 38.9408 -115.4681 260° West 481 554 40,000 98 Level Salt Lake Center
Tue 07:34:30 PM 38.9125 -115.6706 260° West 481 554 40,200 537 Climbing Salt Lake Center
Tue 07:35:31 PM 38.8897 -115.8369 260° West 476 548 41,100 878 Climbing Salt Lake Center
Tue 07:36:33 PM 38.8681 -116.0025 261° West 472 543 42,000 919 Climbing Salt Lake Center
Tue 07:37:35 PM 38.8442 -116.1639 259° West 464 534 43,000 526 Climbing Salt Lake Center
Tue 07:38:27 PM 38.8278 -116.2947 261° West 466 536 43,000  Level Oakland Center
Tue 07:39:28 PM 38.8036 -116.4592 259° West 469 540 43,000  Level Oakland Center
Tue 07:40:29 PM 38.7747 -116.6594 260° West 477 549 43,000  Level Oakland Center
Tue 07:41:30 PM 38.7506 -116.8239 259° West 472 543 43,000  Level Oakland Center
Tue 07:42:32 PM 38.7264 -116.9861 259° West 468 539 43,000  Level Oakland Center
Tue 07:43:44 PM 38.6967 -117.1819 259° West 469 540 43,000  Level Salt Lake Center
Tue 07:44:34 PM 38.6772 -117.3136 259° West 472 543 43,000  Level Oakland Center
Tue 07:45:35 PM 38.6519 -117.4761 259° West 469 540 43,000  Level Oakland Center
Tue 07:46:37 PM 38.6267 -117.6386 259° West 469 540 43,000  Level Oakland Center
Tue 07:47:38 PM 38.6011 -117.8011 259° West 468 539 43,000  Level Oakland Center
Tue 07:48:39 PM 38.5708 -117.9983 259° West 472 543 43,000  Level Oakland Center
Tue 07:49:40 PM 38.5542 -118.1619 263° West 469 540 43,000  Level Oakland Center
Tue 07:50:42 PM 38.5439 -118.3281 266° West 467 537 43,000  Level Oakland Center
Tue 07:51:43 PM 38.5319 -118.4917 265° West 463 533 43,000  Level Oakland Center
Tue 07:52:44 PM 38.5192 -118.6589 264° West 469 540 43,000  Level Oakland Center
Tue 07:53:45 PM 38.5069 -118.8250 265° West 469 540 43,000  Level Oakland Center
Tue 07:54:47 PM 38.4942 -118.9922 264° West 471 542 43,000  Level Oakland Center
Tue 07:55:48 PM 38.4803 -119.1589 264° West 471 542 43,000  Level Oakland Center
Tue 07:56:49 PM 38.4686 -119.3264 265° West 473 544 43,000  Level Oakland Center
Tue 07:57:50 PM 38.4544 -119.4906 264° West 468 539 43,000  Level Oakland Center
Tue 07:58:51 PM 38.4411 -119.6542 264° West 463 533 43,000 -146 Level Oakland Center
Tue 07:59:53 PM 38.4267 -119.8225 264° West 455 524 42,700 -585 Descending Oakland Center
Tue 08:00:54 PM 38.4117 -119.9831 263° West 458 527 41,800 -934 Descending Oakland Center
Tue 08:01:55 PM 38.3978 -120.1472 264° West 465 535 40,800 -934 Descending Oakland Center
Tue 08:02:56 PM 38.3817 -120.3114 263° West 466 536 39,900 -1,869 Descending Oakland Center
Tue 08:03:57 PM 38.3675 -120.4742 264° West 463 533 37,000 -2,951 Descending Oakland Center
Tue 08:04:58 PM 38.3536 -120.6311 264° West 448 516 33,900 -3,415 Descending Oakland Center
Tue 08:06:00 PM 38.3333 -120.8261 263° West 459 528 30,000 -3,512 Descending Oakland Center
Tue 08:07:01 PM 38.2808 -120.9794 246° West 466 536 26,700 -3,098 Descending Oakland Center
Tue 08:08:02 PM 38.2283 -121.1278 246° West 456 525 23,700 -2,947 Descending Oakland Center
Tue 08:08:55 PM 38.2167 -121.2667 264° West 444 511 21,100 -2,924 Descending Northern Cal TRACON
Tue 08:10:01 PM 38.2167 -121.4167 270° West 405 466 17,900 -2,733 Descending Northern Cal TRACON
Tue 08:12:06 PM 38.2364 -121.6897 275° West 399 459 12,400 -2,581 Descending Oakland Center
Tue 08:13:07 PM 38.2442 -121.8156 275° West 358 412 9,900 -2,066 Descending Oakland Center
Tue 08:14:08 PM 38.3042 -121.9006 312° West 279 321 8,200 -1,426 Descending Oakland Center
Tue 08:15:09 PM 38.3531 -121.9600 316° Northwest 254 292 7,000 -1,073 Descending Oakland Center
Tue 08:16:11 PM 38.3961 -122.0214 312° West 241 277 6,000 -488 Descending Oakland Center
Tue 08:17:12 PM 38.4061 -122.0967 280° West 218 251 6,000 -344 Level Oakland Center
Tue 08:18:13 PM 38.3872 -122.1736 253° West 226 260 5,300 -1,131 Descending Oakland Center
Tue 08:19:14 PM 38.3442 -122.2192 220° Southwest 222 255 3,700 -1,721 Descending Oakland Center
Tue 08:20:15 PM 38.2925 -122.2442 201° Southwest 209 241 1,800 -1,426 Descending Oakland Center
Tue 08:21:16 PM 38.2572 -122.2633 203° Southwest 164 189 800 -836 Descending Oakland Center
Tue 08:22:17 PM 38.2264 -122.2781 201° Southwest 134 154 100 -689 Descending Oakland Center

Login

Don't have an account? Register now (free) for customized features, flight alerts, and more!